Terminal Aerodrome Forecast
Issued by NWS

Home | Current Version | Previous Version | Text Only | Print | Product List | Glossary On
Versions: 1 2 3 4 5 6 7 8 9 10 11 12 13 14 15
000
FTUS45 KRIW 201900 AAA
TAFPNA
TAF AMD
KPNA 201921Z 2019/2118 33010G20KT P6SM FEW100 BKN250
     FM210100 30007KT P6SM SCT250
     FM211400 VRB04KT P6SM SCT250
      AMD LTD TO CLD VIS AND WIND=

USA.gov is the U.S. government's official web portal to all federal, state and local government web resources and services.